Time;durP1;ratioP1;P1;durP2;ratioP2;P2;SDS_P1;SDS_P2;PMS_P1;PMS_P2;Temp;Humidity;BMP_temperature;BMP_pressure;BME280_temperature;BME280_humidity;BME280_pressure;Samples;Min_cycle;Max_cycle;Signal;HPM_P1;HPM_P2
2021/11/19 00:00:30;;;;;;;152.96;80.23;;;;;;;-3.09;61.28;101195.12;462969;112;922607;-89
2021/11/19 00:01:41;;;;;;;154.78;80.73;;;;;;;-3.08;61.29;101188.83;462032;112;922770;-88
2021/11/19 00:02:44;;;;;;;156.74;78.46;;;;;;;-3.05;61.33;101187.77;462221;111;922893;-88
2021/11/19 00:03:48;;;;;;;153.24;78.94;;;;;;;-3.04;61.33;101187.66;462489;112;923107;-87
2021/11/19 00:04:52;;;;;;;156.84;81.60;;;;;;;-3.01;61.34;101183.89;463383;111;922417;-88
2021/11/19 00:05:56;;;;;;;151.72;80.98;;;;;;;-2.99;61.32;101187.31;464013;112;922440;-88
2021/11/19 00:07:01;;;;;;;152.12;82.44;;;;;;;-2.98;61.35;101192.52;463217;111;922575;-87
2021/11/19 00:08:05;;;;;;;157.05;81.91;;;;;;;-2.96;61.33;101187.92;463206;112;926596;-88
2021/11/19 00:09:10;;;;;;;154.67;79.83;;;;;;;-2.96;61.26;101182.59;460267;112;922677;-88
2021/11/19 00:10:15;;;;;;;151.29;79.03;;;;;;;-2.96;61.28;101187.08;463827;111;922593;-88
2021/11/19 00:11:22;;;;;;;154.87;80.23;;;;;;;-2.97;61.25;101183.55;464425;111;922691;-88
2021/11/19 00:12:26;;;;;;;143.97;76.77;;;;;;;-2.96;61.32;101182.59;463728;113;930595;-88
2021/11/19 00:13:30;;;;;;;151.12;76.24;;;;;;;-2.93;61.43;101181.53;462672;111;922416;-88
2021/11/19 00:14:34;;;;;;;141.14;76.30;;;;;;;-2.89;61.50;101184.81;461240;111;923249;-88
2021/11/19 00:15:38;;;;;;;150.32;79.23;;;;;;;-2.86;61.33;101187.23;465710;111;922604;-88
2021/11/19 00:16:44;;;;;;;154.84;79.85;;;;;;;-2.86;61.28;101176.56;465465;112;922478;-89
2021/11/19 00:17:48;;;;;;;160.01;78.94;;;;;;;-2.85;61.28;101178.27;464323;111;922520;-88
2021/11/19 00:18:52;;;;;;;156.54;80.28;;;;;;;-2.83;61.35;101179.87;463079;112;922801;-86
2021/11/19 00:19:55;;;;;;;144.70;76.74;;;;;;;-2.80;61.36;101181.45;463232;111;923307;-89
2021/11/19 00:21:01;;;;;;;146.94;76.94;;;;;;;-2.79;61.33;101175.15;464459;112;922949;-88
2021/11/19 00:22:07;;;;;;;156.51;78.24;;;;;;;-2.76;61.30;101177.60;461931;111;922529;-89
2021/11/19 00:23:10;;;;;;;145.64;75.31;;;;;;;-2.75;61.28;101165.94;465288;111;922276;-88
2021/11/19 00:24:16;;;;;;;145.74;74.88;;;;;;;-2.74;61.12;101168.50;464413;111;922942;-87
2021/11/19 00:25:20;;;;;;;148.48;79.02;;;;;;;-2.74;61.14;101170.31;462485;113;922610;-88
2021/11/19 00:26:24;;;;;;;147.51;78.17;;;;;;;-2.73;61.06;101166.69;463182;111;922825;-88
2021/11/19 00:27:28;;;;;;;162.71;83.02;;;;;;;-2.74;60.96;101165.83;464549;111;922823;-88
2021/11/19 00:28:33;;;;;;;157.77;83.01;;;;;;;-2.76;60.88;101165.11;464504;112;922265;-88
2021/11/19 00:29:39;;;;;;;136.70;73.38;;;;;;;-2.77;60.92;101168.74;455740;113;922317;-87
2021/11/19 00:30:44;;;;;;;140.17;70.68;;;;;;;-2.78;60.97;101160.84;455897;112;922218;-89
2021/11/19 00:31:48;;;;;;;132.85;67.41;;;;;;;-2.78;60.94;101164.37;463814;110;922082;-87
2021/11/19 00:32:52;;;;;;;135.31;67.51;;;;;;;-2.79;60.93;101157.32;465242;111;922097;-88
2021/11/19 00:33:56;;;;;;;119.55;64.31;;;;;;;-2.79;60.96;101156.47;463103;111;922581;-88
2021/11/19 00:35:00;;;;;;;120.52;63.93;;;;;;;-2.79;61.00;101157.32;464851;113;922591;-88
2021/11/19 00:36:07;;;;;;;122.64;62.23;;;;;;;-2.79;60.85;101151.13;459674;113;922846;-88
2021/11/19 00:37:12;;;;;;;115.51;62.38;;;;;;;-2.79;60.76;101156.47;459557;112;922760;-88
2021/11/19 00:38:18;;;;;;;124.02;62.18;;;;;;;-2.81;60.70;101155.75;458630;112;922557;-88
2021/11/19 00:39:23;;;;;;;118.96;60.02;;;;;;;-2.84;60.69;101163.97;460156;113;922726;-87
2021/11/19 00:40:35;;;;;;;116.11;62.81;;;;;;;-2.86;60.67;101158.73;452760;114;922687;-87
2021/11/19 00:41:41;;;;;;;119.03;62.25;;;;;;;-2.88;60.64;101147.35;452930;114;922508;-87
2021/11/19 00:42:45;;;;;;;115.16;61.47;;;;;;;-2.90;60.66;101153.75;460325;113;922825;-89
2021/11/19 00:43:49;;;;;;;108.76;59.50;;;;;;;-2.92;60.66;101148.52;459811;112;922633;-88
2021/11/19 00:44:52;;;;;;;122.61;65.47;;;;;;;-2.95;60.67;101144.28;458510;113;923261;-87
2021/11/19 00:45:57;;;;;;;118.70;62.71;;;;;;;-2.97;60.68;101143.53;460654;114;922912;-89
2021/11/19 00:47:01;;;;;;;118.47;63.64;;;;;;;-2.98;60.74;101128.48;452221;116;922817;-88
2021/11/19 00:48:07;;;;;;;118.35;60.64;;;;;;;-2.94;60.86;101137.13;453271;114;922653;-88
2021/11/19 00:49:12;;;;;;;113.39;60.66;;;;;;;-2.90;60.93;101137.74;460199;114;922470;-90
2021/11/19 00:50:16;;;;;;;123.48;61.77;;;;;;;-2.88;60.92;101133.16;458202;114;922561;-88
2021/11/19 00:51:29;;;;;;;112.49;59.36;;;;;;;-2.88;60.77;101125.16;457851;113;922612;-88
2021/11/19 00:52:32;;;;;;;113.18;58.71;;;;;;;-2.87;60.71;101132.20;458934;113;922555;-88
2021/11/19 00:53:38;;;;;;;124.47;64.85;;;;;;;-2.89;60.66;101129.63;450519;115;930820;-88
2021/11/19 00:54:42;;;;;;;129.86;66.41;;;;;;;-2.91;60.60;101128.89;441958;118;923005;-89
2021/11/19 00:55:46;;;;;;;118.64;66.33;;;;;;;-2.95;60.54;101122.94;450703;116;922885;-89
2021/11/19 00:56:56;;;;;;;132.72;68.53;;;;;;;-2.97;60.52;101122.19;449819;115;922584;-88
2021/11/19 00:58:00;;;;;;;126.03;67.24;;;;;;;-2.99;60.55;101120.63;451185;117;922606;-89
2021/11/19 00:59:04;;;;;;;130.83;69.38;;;;;;;-3.03;60.52;101125.31;451438;115;923347;-87
2021/11/19 01:00:12;;;;;;;158.52;81.35;;;;;;;-3.04;60.58;101139.64;450721;115;922977;-87
2021/11/19 01:01:22;;;;;;;145.33;78.72;;;;;;;-3.07;60.64;101131.85;450849;115;923275;-88
2021/11/19 01:02:27;;;;;;;;;;;;;;;-3.10;60.62;101131.24;443920;118;922626;-88
2021/11/19 01:03:32;;;;;;;165.70;82.56;;;;;;;-3.14;60.74;101135.11;450786;116;922256;-88
2021/11/19 01:04:37;;;;;;;170.82;92.15;;;;;;;-3.18;60.82;101134.47;452011;117;922428;-87
2021/11/19 01:05:41;;;;;;;175.50;92.28;;;;;;;-3.21;60.99;101124.04;451114;116;922755;-87
2021/11/19 01:06:46;;;;;;;164.16;88.54;;;;;;;-3.23;61.17;101117.11;449674;115;922660;-87
2021/11/19 01:07:50;;;;;;;141.03;75.53;;;;;;;-3.20;61.30;101104.41;451701;115;922778;-87
2021/11/19 01:08:55;;;;;;;130.89;70.69;;;;;;;-3.16;61.52;101111.22;449469;117;922720;-88
2021/11/19 01:10:02;;;;;;;121.32;66.20;;;;;;;-3.10;61.58;101105.42;451959;117;922565;-86
2021/11/19 01:11:09;;;;;;;146.61;76.68;;;;;;;-3.04;61.48;101115.64;449973;116;930920;-87
2021/11/19 01:12:15;;;;;;;140.51;76.61;;;;;;;-3.01;61.32;101118.06;442302;117;922545;-87
2021/11/19 01:13:19;;;;;;;154.63;82.19;;;;;;;-3.04;61.20;101131.64;450982;115;922541;-86
2021/11/19 01:14:27;;;;;;;150.73;83.82;;;;;;;-3.08;61.17;101116.81;450315;117;922308;-87
2021/11/19 01:15:34;;;;;;;175.30;87.82;;;;;;;-3.10;61.19;101117.91;451193;115;923662;-87
2021/11/19 01:16:42;;;;;;;159.19;83.42;;;;;;;-3.13;61.25;101113.64;452928;115;922501;-87
2021/11/19 01:17:50;;;;;;;169.46;87.59;;;;;;;-3.14;61.26;101109.27;443936;117;922035;-87
2021/11/19 01:18:58;;;;;;;162.40;87.17;;;;;;;-3.13;61.35;101116.30;442273;117;922433;-88
2021/11/19 01:20:12;;;;;;;164.33;87.33;;;;;;;-3.13;61.34;101107.45;443213;114;922306;-87
2021/11/19 01:21:22;;;;;;;161.61;87.48;;;;;;;-3.13;61.38;101096.78;442557;116;922497;-88
2021/11/19 01:22:29;;;;;;;167.94;88.78;;;;;;;-3.12;61.35;101095.83;435194;116;922282;-87
2021/11/19 01:23:35;;;;;;;167.07;90.42;;;;;;;-3.12;61.32;101095.83;441686;114;922544;-87
2021/11/19 01:24:40;;;;;;;178.05;91.75;;;;;;;-3.12;61.38;101099.34;437754;117;922108;-86
2021/11/19 01:25:47;;;;;;;173.68;94.38;;;;;;;-3.12;61.38;101095.83;453925;114;922327;-87
2021/11/19 01:26:51;;;;;;;174.90;93.57;;;;;;;-3.13;61.37;101086.97;458001;113;930934;-87
2021/11/19 01:27:55;;;;;;;171.35;94.12;;;;;;;-3.11;61.44;101086.86;460089;114;922615;-88
2021/11/19 01:29:03;;;;;;;156.91;83.18;;;;;;;-3.10;61.60;101086.76;460637;112;923264;-86
2021/11/19 01:30:11;;;;;;;179.80;96.43;;;;;;;-3.05;61.63;101087.26;459887;112;922686;-87
2021/11/19 01:31:18;;;;;;;164.98;90.58;;;;;;;-3.01;61.56;101090.53;462693;112;922593;-87
2021/11/19 01:32:26;;;;;;;157.32;86.16;;;;;;;-3.00;61.42;101087.76;457297;114;922656;-86
2021/11/19 01:33:48;;;;;;;154.61;84.88;;;;;;;-3.01;61.30;101088.72;460188;112;922322;-87
2021/11/19 01:35:00;;;;;;;145.27;80.69;;;;;;;-3.04;61.21;101090.78;462064;112;922188;-87
2021/11/19 01:36:12;;;;;;;132.36;74.57;;;;;;;-3.07;61.15;101083.84;461309;112;922267;-87
2021/11/19 01:37:21;;;;;;;144.03;75.64;;;;;;;-3.11;61.12;101093.05;440186;118;922683;-87
2021/11/19 01:38:28;;;;;;;144.56;77.33;;;;;;;-3.13;61.09;101086.11;456439;111;922072;-87
2021/11/19 01:39:40;;;;;;;131.24;69.88;;;;;;;-3.16;61.11;101081.02;449000;116;922293;-87
2021/11/19 01:40:55;;;;;;;124.91;67.08;;;;;;;-3.18;61.15;101089.12;464509;111;922722;-88
2021/11/19 01:42:30;;;;;;;125.51;65.75;;;;;;;-3.20;61.23;101080.41;449035;113;922314;-87
2021/11/19 01:43:36;;;;;;;120.24;62.59;;;;;;;-3.19;61.20;101086.56;465096;112;922659;-87
2021/11/19 01:44:45;;;;;;;122.07;64.01;;;;;;;-3.20;61.15;101083.08;463151;113;922403;-87
2021/11/19 01:45:52;;;;;;;120.16;63.45;;;;;;;-3.20;61.24;101084.89;459679;112;922567;-87
2021/11/19 01:46:58;;;;;;;104.62;57.39;;;;;;;-3.22;61.21;101090.33;453181;113;922176;-86
2021/11/19 01:48:07;;;;;;;112.63;56.74;;;;;;;-3.21;61.34;101077.86;464654;112;922085;-87
2021/11/19 01:49:12;;;;;;;118.15;60.07;;;;;;;-3.17;61.29;101076.65;464052;112;922071;-86
2021/11/19 01:50:26;;;;;;;110.84;59.43;;;;;;;-3.14;61.38;101076.44;465935;111;922735;-87
2021/11/19 01:51:34;;;;;;;116.70;61.54;;;;;;;-3.12;61.41;101080.67;464290;111;922160;-87
2021/11/19 01:52:41;;;;;;;118.50;61.47;;;;;;;-3.07;61.42;101078.51;464756;111;922098;-87
2021/11/19 01:53:51;;;;;;;120.20;62.44;;;;;;;-3.04;61.25;101077.44;462501;112;922492;-87
2021/11/19 01:55:01;;;;;;;108.73;58.41;;;;;;;-3.04;61.11;101083.63;465034;111;922270;-86
2021/11/19 01:56:12;;;;;;;106.53;54.16;;;;;;;-3.05;61.00;101081.92;464426;112;922292;-87
2021/11/19 01:57:23;;;;;;;106.23;55.53;;;;;;;-3.08;60.94;101082.14;463140;112;930118;-87
2021/11/19 01:58:42;;;;;;;101.67;57.15;;;;;;;-3.10;60.91;101080.56;464033;111;922175;-87
2021/11/19 01:59:54;;;;;;;101.20;52.87;;;;;;;-3.13;60.91;101083.45;463866;111;924169;-86
2021/11/19 02:01:01;;;;;;;108.71;53.68;;;;;;;-3.16;61.02;101079.21;464842;111;930079;-86
2021/11/19 02:02:08;;;;;;;104.80;55.13;;;;;;;-3.17;61.10;101077.50;465112;111;922220;-86
2021/11/19 02:03:15;;;;;;;98.58;54.50;;;;;;;-3.14;61.11;101076.44;464985;111;922146;-87
2021/11/19 02:04:23;;;;;;;110.21;55.46;;;;;;;-3.14;61.03;101081.77;465003;108;922176;-86
2021/11/19 02:05:42;;;;;;;109.78;56.27;;;;;;;-3.15;61.03;101074.73;464834;112;922252;-85
2021/11/19 02:06:53;;;;;;;103.78;54.21;;;;;;;-3.14;61.10;101079.11;453659;114;922585;-87
2021/11/19 02:08:04;;;;;;;114.50;57.28;;;;;;;-3.12;61.13;101072.67;446549;112;922253;-87
2021/11/19 02:09:13;;;;;;;105.28;57.03;;;;;;;-3.09;61.25;101077.77;441954;115;922637;-87
2021/11/19 02:10:32;;;;;;;104.12;55.94;;;;;;;-3.03;61.25;101073.78;457265;115;922078;-86
2021/11/19 02:12:12;;;;;;;116.16;60.55;;;;;;;-2.99;61.11;101072.61;464513;111;922311;-86
2021/11/19 02:13:22;;;;;;;117.69;62.49;;;;;;;-2.97;60.96;101068.84;464102;113;922566;-85
2021/11/19 02:14:36;;;;;;;129.72;67.29;;;;;;;-2.98;60.81;101069.80;455996;114;922112;-85
2021/11/19 02:15:43;;;;;;;136.49;76.24;;;;;;;-3.01;60.77;101080.72;452080;111;922359;-87
2021/11/19 02:16:53;;;;;;;142.24;77.37;;;;;;;-3.05;60.78;101073.92;464756;111;922297;-86
2021/11/19 02:18:00;;;;;;;145.78;77.43;;;;;;;-3.08;60.82;101075.95;463814;112;922361;-87
2021/11/19 02:19:11;;;;;;;146.63;79.18;;;;;;;-3.10;60.82;101069.90;455375;114;922759;-86
2021/11/19 02:20:24;;;;;;;141.82;78.40;;;;;;;-3.14;60.81;101065.77;463248;111;922086;-87
2021/11/19 02:21:41;;;;;;;141.37;79.01;;;;;;;-3.16;60.83;101065.02;465024;111;922277;-86
2021/11/19 02:22:52;;;;;;;145.73;75.83;;;;;;;-3.17;60.95;101064.17;464178;112;922166;-87
2021/11/19 02:24:02;;;;;;;142.61;75.60;;;;;;;-3.17;61.01;101063.31;462745;112;922363;-86
2021/11/19 02:25:15;;;;;;;137.93;75.59;;;;;;;-3.17;61.03;101060.65;464661;111;922181;-86
2021/11/19 02:26:23;;;;;;;141.92;72.19;;;;;;;-3.17;61.06;101066.84;464227;111;930108;-85
2021/11/19 02:27:51;;;;;;;133.77;71.38;;;;;;;-3.17;61.09;101072.17;464102;111;923124;-85
2021/11/19 02:28:56;;;;;;;130.86;67.68;;;;;;;-3.18;61.11;101065.13;462303;112;922307;-86
2021/11/19 02:30:06;;;;;;;120.15;67.04;;;;;;;-3.16;61.22;101067.69;463313;111;922232;-86
2021/11/19 02:31:21;;;;;;;120.81;64.22;;;;;;;-3.17;61.22;101064.17;465290;112;930178;-86
2021/11/19 02:32:28;;;;;;;113.15;60.73;;;;;;;-3.17;61.20;101069.50;465199;111;922847;-86
2021/11/19 02:33:34;;;;;;;109.83;60.78;;;;;;;-3.16;61.18;101073.87;464281;112;922158;-85
2021/11/19 02:34:39;;;;;;;114.82;60.98;;;;;;;-3.15;61.15;101074.73;464222;111;922253;-86
2021/11/19 02:36:05;;;;;;;117.92;62.40;;;;;;;-3.15;61.23;101078.25;464246;111;922635;-86
2021/11/19 02:37:16;;;;;;;113.88;62.11;;;;;;;-3.12;61.29;101070.00;464495;111;922340;-86
2021/11/19 02:38:25;;;;;;;112.76;61.31;;;;;;;-3.08;61.21;101073.28;463301;112;922255;-87
2021/11/19 02:39:32;;;;;;;117.48;61.59;;;;;;;-3.07;61.15;101075.84;464467;111;922316;-88
2021/11/19 02:40:39;;;;;;;113.73;60.64;;;;;;;-3.08;61.13;101071.47;464317;111;922439;-86
2021/11/19 02:41:47;;;;;;;110.27;59.59;;;;;;;-3.06;61.17;101069.55;455845;114;922716;-85
2021/11/19 02:42:55;;;;;;;114.50;59.87;;;;;;;-3.04;61.27;101074.77;457664;113;922443;-85
2021/11/19 02:44:02;;;;;;;108.59;58.91;;;;;;;-3.01;61.22;101067.37;465108;111;922755;-86
2021/11/19 02:45:10;;;;;;;109.42;59.72;;;;;;;-2.99;61.14;101061.94;464107;111;922137;-85
2021/11/19 02:46:20;;;;;;;109.76;60.31;;;;;;;-2.96;61.24;101051.02;455101;113;922595;-85
2021/11/19 02:47:26;;;;;;;120.62;61.50;;;;;;;-2.92;61.12;101067.66;448496;116;922254;-85
2021/11/19 02:48:32;;;;;;;108.22;58.72;;;;;;;-2.92;60.94;101059.66;453890;113;922792;-85
2021/11/19 02:49:38;;;;;;;111.05;59.76;;;;;;;-2.93;60.92;101058.80;464656;111;922533;-86
2021/11/19 02:50:43;;;;;;;113.64;59.99;;;;;;;-2.93;60.96;101065.95;464829;111;922292;-86
2021/11/19 02:51:47;;;;;;;109.80;60.10;;;;;;;-2.93;60.90;101068.63;461005;112;922229;-87
2021/11/19 02:52:55;;;;;;;110.14;61.14;;;;;;;-2.96;60.82;101073.22;463793;111;930051;-86
2021/11/19 02:53:58;;;;;;;114.46;62.13;;;;;;;-2.98;60.73;101060.97;464542;111;922281;-84
2021/11/19 02:55:06;;;;;;;107.89;59.64;;;;;;;-3.01;60.71;101061.19;455303;114;922226;-86
2021/11/19 02:56:14;;;;;;;119.79;62.19;;;;;;;-3.03;60.67;101063.11;447095;112;922385;-84
2021/11/19 02:57:20;;;;;;;119.92;60.24;;;;;;;-3.06;60.76;101058.88;449811;114;922321;-86
2021/11/19 02:58:30;;;;;;;113.43;61.53;;;;;;;-3.07;60.79;101062.50;458181;112;922529;-86
2021/11/19 02:59:35;;;;;;;118.98;61.23;;;;;;;-3.09;60.75;101059.09;464100;111;922093;-86
2021/11/19 03:00:42;;;;;;;114.02;61.85;;;;;;;-3.10;60.78;101064.56;464471;111;922235;-85
2021/11/19 03:01:53;;;;;;;106.97;60.02;;;;;;;-3.12;60.83;101061.16;463634;111;922251;-87
2021/11/19 03:03:04;;;;;;;105.54;58.73;;;;;;;-3.02;60.92;101065.67;499368;104;947191;-85
2021/11/19 03:04:14;;;;;;;114.63;62.61;;;;;;;-3.15;60.87;101059.58;487454;106;922791;-87
2021/11/19 03:05:28;;;;;;;105.13;57.61;;;;;;;-3.05;60.90;101065.92;470827;110;947136;-87
2021/11/19 03:06:38;;;;;;;114.59;60.56;;;;;;;-3.17;60.95;101066.84;462672;113;922245;-86
2021/11/19 03:07:42;;;;;;;112.25;59.21;;;;;;;-3.17;60.99;101073.98;462932;113;922675;-86
2021/11/19 03:08:46;;;;;;;109.98;60.58;;;;;;;-3.15;61.12;101070.25;462654;113;922207;-87
2021/11/19 03:09:54;;;;;;;106.48;58.17;;;;;;;-3.13;61.17;101060.30;453258;115;930994;-87
2021/11/19 03:10:58;;;;;;;112.27;61.94;;;;;;;-3.09;61.16;101059.09;462415;112;922361;-85
2021/11/19 03:12:05;;;;;;;107.25;58.84;;;;;;;-3.02;61.21;101059.48;462715;112;922378;-85
2021/11/19 03:13:11;;;;;;;117.26;62.48;;;;;;;-2.97;61.16;101067.98;463262;111;922102;-86
2021/11/19 03:14:16;;;;;;;112.93;62.21;;;;;;;-2.92;61.03;101067.66;463755;113;922350;-85
2021/11/19 03:15:23;;;;;;;118.77;63.41;;;;;;;-2.91;60.94;101064.00;461963;111;922258;-86
2021/11/19 03:16:28;;;;;;;109.46;61.53;;;;;;;-2.88;60.90;101058.45;463235;113;922401;-85
2021/11/19 03:17:31;;;;;;;117.56;64.75;;;;;;;-2.86;60.87;101060.02;461170;113;922509;-86
2021/11/19 03:18:35;;;;;;;112.38;62.70;;;;;;;-2.84;60.83;101055.42;460941;112;930393;-87
2021/11/19 03:19:39;;;;;;;114.72;61.84;;;;;;;-2.82;60.87;101050.83;461763;112;922585;-88
2021/11/19 03:20:48;;;;;;;118.98;62.95;;;;;;;-2.78;60.88;101046.09;460764;111;922482;-86
2021/11/19 03:21:52;;;;;;;110.57;60.74;;;;;;;-2.74;60.90;101052.89;462038;112;923449;-86
2021/11/19 03:22:57;;;;;;;106.24;59.69;;;;;;;-2.70;60.81;101049.04;462369;111;922488;-85
2021/11/19 03:24:02;;;;;;;109.18;59.84;;;;;;;-2.68;60.69;101044.41;461706;113;922486;-85
2021/11/19 03:25:09;;;;;;;108.19;60.06;;;;;;;-2.67;60.70;101043.45;461611;111;922478;-87
2021/11/19 03:26:15;;;;;;;109.44;59.64;;;;;;;-2.68;60.71;101039.92;459936;114;922430;-86
2021/11/19 03:27:20;;;;;;;101.58;56.01;;;;;;;-2.66;60.65;101039.81;454533;114;922577;-86
2021/11/19 03:28:26;;;;;;;102.67;58.40;;;;;;;-2.66;60.69;101046.01;461259;113;930560;-84
2021/11/19 03:29:31;;;;;;;112.42;60.52;;;;;;;-2.67;60.65;101036.30;461306;111;922808;-88
2021/11/19 03:30:39;;;;;;;109.28;59.61;;;;;;;-2.68;60.60;101039.08;461924;114;922848;-85
2021/11/19 03:31:44;;;;;;;113.42;61.30;;;;;;;-2.70;60.62;101036.52;461383;111;922504;-88
2021/11/19 03:32:49;;;;;;;105.23;57.69;;;;;;;-2.71;60.59;101032.17;460669;111;922869;-86
2021/11/19 03:33:54;;;;;;;109.06;58.04;;;;;;;-2.73;60.65;101039.44;461588;113;922673;-86
2021/11/19 03:34:59;;;;;;;104.70;57.33;;;;;;;-2.73;60.72;101043.92;461231;114;923061;-87
2021/11/19 03:36:06;;;;;;;107.76;58.91;;;;;;;-2.73;60.72;101039.44;461680;112;922456;-86
2021/11/19 03:37:11;;;;;;;105.05;58.15;;;;;;;-2.73;60.69;101043.92;453754;114;923152;-87
2021/11/19 03:38:16;;;;;;;108.94;60.38;;;;;;;-2.74;60.70;101045.73;453552;113;922947;-87
2021/11/19 03:39:23;;;;;;;111.22;61.39;;;;;;;-2.75;60.72;101052.03;461462;114;922453;-86
2021/11/19 03:40:31;;;;;;;111.14;61.09;;;;;;;-2.75;60.72;101054.70;460956;112;930163;-87
2021/11/19 03:41:38;;;;;;;115.36;64.06;;;;;;;-2.76;60.73;101052.17;462503;111;922814;-86
2021/11/19 03:42:42;;;;;;;121.37;64.44;;;;;;;-2.78;60.71;101046.09;460720;112;922814;-86
2021/11/19 03:43:52;;;;;;;119.36;67.22;;;;;;;-2.79;60.78;101052.39;461046;112;922351;-87
2021/11/19 03:44:59;;;;;;;122.80;64.44;;;;;;;-2.81;60.83;101038.34;449739;116;922440;-85
2021/11/19 03:46:07;;;;;;;124.46;66.62;;;;;;;-2.82;60.88;101042.83;460678;111;922385;-85
2021/11/19 03:47:17;;;;;;;121.24;67.81;;;;;;;-2.81;60.89;101033.83;461697;112;922372;-84
2021/11/19 03:48:22;;;;;;;126.77;66.95;;;;;;;-2.79;60.97;101039.91;459001;114;923011;-86
2021/11/19 03:49:26;;;;;;;118.04;61.93;;;;;;;-2.75;61.14;101037.84;462115;111;922645;-85
2021/11/19 03:50:33;;;;;;;111.78;60.41;;;;;;;-2.73;61.08;101036.77;460489;111;922946;-84
2021/11/19 03:51:41;;;;;;;113.01;59.37;;;;;;;-2.70;60.96;101041.85;461221;111;930349;-86
2021/11/19 03:52:46;;;;;;;104.53;59.02;;;;;;;-2.68;61.00;101039.08;462303;112;923120;-85
2021/11/19 03:53:49;;;;;;;105.87;57.63;;;;;;;-2.66;60.94;101035.33;460434;111;923014;-87
2021/11/19 03:54:59;;;;;;;108.62;60.36;;;;;;;-2.65;60.86;101038.85;460732;113;922548;-85
2021/11/19 03:56:04;;;;;;;110.93;58.68;;;;;;;-2.64;60.82;101037.86;455864;113;923531;-87
2021/11/19 03:57:10;;;;;;;111.37;59.19;;;;;;;-2.65;60.83;101038.85;456209;114;922616;-85
2021/11/19 03:58:17;;;;;;;108.01;58.79;;;;;;;-2.65;60.81;101044.19;460941;113;922574;-86
2021/11/19 03:59:21;;;;;;;107.78;59.14;;;;;;;-2.66;60.77;101051.34;460577;113;923276;-85
2021/11/19 04:00:32;;;;;;;108.37;60.59;;;;;;;-2.66;60.75;101042.48;462047;112;922613;-87
2021/11/19 04:01:39;;;;;;;111.17;61.35;;;;;;;-2.67;60.76;101033.63;462012;112;922468;-87
2021/11/19 04:02:43;;;;;;;110.38;60.91;;;;;;;-2.67;60.82;101030.11;461507;113;930181;-86
2021/11/19 04:03:49;;;;;;;111.39;60.63;;;;;;;-2.65;60.95;101029.03;460443;113;922985;-85
2021/11/19 04:04:53;;;;;;;109.32;59.09;;;;;;;-2.60;61.08;101029.52;461078;112;923066;-86
2021/11/19 04:05:57;;;;;;;104.28;59.04;;;;;;;-2.54;61.04;101028.19;461290;113;923818;-85
2021/11/19 04:07:03;;;;;;;116.44;61.94;;;;;;;-2.50;60.91;101034.13;461989;112;922706;-85
2021/11/19 04:08:08;;;;;;;107.03;59.42;;;;;;;-2.48;60.84;101027.68;461323;112;922646;-85
2021/11/19 04:09:14;;;;;;;108.06;59.47;;;;;;;-2.48;60.79;101026.86;460339;113;922442;-86
2021/11/19 04:10:20;;;;;;;101.18;57.92;;;;;;;-2.47;60.76;101024.05;461730;114;923056;-85
2021/11/19 04:11:26;;;;;;;102.08;58.11;;;;;;;-2.47;60.74;101024.05;462009;113;922582;-85
2021/11/19 04:12:30;;;;;;;115.74;60.37;;;;;;;-2.45;60.72;101018.59;461677;113;922460;-86
2021/11/19 04:13:34;;;;;;;97.64;58.07;;;;;;;-2.46;60.62;101020.41;461479;113;922614;-85
2021/11/19 04:14:39;;;;;;;101.19;58.41;;;;;;;-2.47;60.62;101017.85;462328;113;922485;-86
2021/11/19 04:15:46;;;;;;;106.21;60.37;;;;;;;-2.49;60.64;101020.67;460833;112;922574;-85
2021/11/19 04:16:53;;;;;;;110.65;61.63;;;;;;;-2.49;60.68;101017.14;460030;112;922620;-85
2021/11/19 04:17:57;;;;;;;105.48;59.99;;;;;;;-2.48;60.73;101008.99;461994;112;922558;-86
2021/11/19 04:19:03;;;;;;;112.35;62.16;;;;;;;-2.45;60.75;101005.25;456102;115;922629;-87
2021/11/19 04:20:08;;;;;;;111.55;63.16;;;;;;;-2.43;60.76;101000.65;455094;114;930385;-86
2021/11/19 04:21:12;;;;;;;118.98;65.47;;;;;;;-2.42;60.71;101004.98;460548;111;922764;-86
2021/11/19 04:22:18;;;;;;;117.53;64.61;;;;;;;-2.40;60.67;101008.40;460944;111;922744;-85
2021/11/19 04:23:24;;;;;;;123.62;63.91;;;;;;;-2.40;60.59;101011.06;459077;114;922633;-87
2021/11/19 04:24:35;;;;;;;112.41;63.20;;;;;;;-2.39;60.69;101016.30;460618;113;922597;-85
2021/11/19 04:25:41;;;;;;;109.56;61.78;;;;;;;-2.37;60.63;101025.02;461987;113;922557;-86
2021/11/19 04:26:45;;;;;;;106.74;62.76;;;;;;;-2.37;60.63;101016.19;462292;113;922843;-84
2021/11/19 04:27:50;;;;;;;114.32;61.65;;;;;;;-2.35;60.69;101006.21;463059;111;922686;-86
2021/11/19 04:29:03;;;;;;;105.86;61.60;;;;;;;-2.32;60.79;101012.17;446936;116;922964;-85
2021/11/19 04:30:16;;;;;;;110.87;61.83;;;;;;;-2.28;60.80;101004.76;460193;111;922980;-84
2021/11/19 04:31:24;;;;;;;101.44;60.49;;;;;;;-2.23;60.86;100999.90;460759;111;922636;-85
2021/11/19 04:32:28;;;;;;;108.38;62.67;;;;;;;-2.20;60.80;101005.83;461343;112;922586;-84
2021/11/19 04:33:32;;;;;;;120.32;66.26;;;;;;;-2.16;60.74;101004.64;461796;113;922014;-84
2021/11/19 04:34:39;;;;;;;114.94;61.88;;;;;;;-2.15;60.66;101005.48;462451;113;922548;-84
2021/11/19 04:35:45;;;;;;;108.16;60.08;;;;;;;-2.14;60.57;101010.69;462841;112;922385;-85
2021/11/19 04:36:49;;;;;;;104.26;58.08;;;;;;;-2.12;60.55;101019.44;461572;114;922623;-86
2021/11/19 04:37:53;;;;;;;108.72;58.56;;;;;;;-2.13;60.52;101011.54;454756;115;922272;-85
2021/11/19 04:38:58;;;;;;;109.88;61.33;;;;;;;-2.14;60.40;101016.03;453995;114;923498;-86
2021/11/19 04:40:04;;;;;;;103.50;59.48;;;;;;;-2.16;60.40;101018.00;460164;112;922548;-85
2021/11/19 04:41:08;;;;;;;111.81;62.32;;;;;;;-2.16;60.48;101007.31;461847;112;922547;-85
2021/11/19 04:42:13;;;;;;;112.21;60.32;;;;;;;-2.14;60.52;101009.84;460454;112;922608;-87
2021/11/19 04:43:18;;;;;;;106.24;60.55;;;;;;;-2.11;60.55;101002.45;461750;113;923299;-86
2021/11/19 04:44:21;;;;;;;108.95;62.95;;;;;;;-2.06;60.65;100993.20;460361;111;922761;-86
2021/11/19 04:45:28;;;;;;;121.87;62.85;;;;;;;-1.99;60.70;100989.92;461259;111;922867;-85
2021/11/19 04:46:33;;;;;;;103.51;61.23;;;;;;;-1.93;60.54;100980.56;462212;113;923140;-85
2021/11/19 04:47:37;;;;;;;105.44;60.59;;;;;;;-1.89;60.36;100995.36;461766;111;922569;-85
2021/11/19 04:48:41;;;;;;;105.89;63.35;;;;;;;-1.88;60.26;100994.39;460036;112;922562;-85
2021/11/19 04:49:45;;;;;;;115.30;66.98;;;;;;;-1.88;60.25;101000.59;460193;111;922551;-84
2021/11/19 04:50:51;;;;;;;116.65;65.96;;;;;;;-1.88;60.09;101002.41;463631;112;922466;-87
2021/11/19 04:51:55;;;;;;;114.42;62.99;;;;;;;-1.92;60.00;101001.78;451050;115;922526;-85
2021/11/19 04:53:00;;;;;;;106.68;60.02;;;;;;;-1.95;60.10;101004.72;452519;115;922481;-86
2021/11/19 04:54:05;;;;;;;114.40;57.52;;;;;;;-1.96;60.19;100999.49;453153;114;922772;-85
2021/11/19 04:55:11;;;;;;;106.92;59.96;;;;;;;-1.95;60.18;101009.22;460657;111;922666;-86
2021/11/19 04:56:16;;;;;;;114.54;63.18;;;;;;;-1.94;60.14;101016.27;460765;113;923196;-86
2021/11/19 04:57:21;;;;;;;111.47;61.24;;;;;;;-1.96;60.14;100999.49;462186;111;922571;-84
2021/11/19 04:58:26;;;;;;;120.35;62.17;;;;;;;-1.97;60.20;100992.44;461622;111;922526;-85